Time;durP1;ratioP1;P1;durP2;ratioP2;P2;SDS_P1;SDS_P2;PMS_P1;PMS_P2;Temp;Humidity;BMP_temperature;BMP_pressure;BME280_temperature;BME280_humidity;BME280_pressure;Samples;Min_cycle;Max_cycle;Signal;HPM_P1;HPM_P2
2023/02/23 00:01:27;;;;;;;15.57;9.23;;;;;;;8.98;62.47;99356.88;5113832;27;20024;-70
2023/02/23 00:03:55;;;;;;;17.50;9.38;;;;;;;8.96;62.50;99353.59;5128527;28;20031;-70
2023/02/23 00:06:21;;;;;;;15.80;9.05;;;;;;;9.07;62.98;99349.31;5124114;27;20058;-70
2023/02/23 00:08:47;;;;;;;12.05;8.93;;;;;;;9.06;62.57;99350.47;5098448;28;20089;-70
2023/02/23 00:11:14;;;;;;;19.98;10.38;;;;;;;8.94;63.78;99353.09;5116606;28;20051;-70
2023/02/23 00:13:41;;;;;;;18.95;9.88;;;;;;;8.98;63.14;99349.31;5120389;28;20438;-70
2023/02/23 00:16:11;;;;;;;26.75;10.45;;;;;;;9.07;62.53;99352.13;5121808;28;20026;-70
2023/02/23 00:18:47;;;;;;;23.55;12.95;;;;;;;9.18;62.76;99357.38;5121611;27;20051;-70
2023/02/23 00:21:28;;;;;;;20.40;11.00;;;;;;;9.23;61.68;99349.66;5125249;28;20079;-70
2023/02/23 00:23:59;;;;;;;22.88;10.73;;;;;;;9.25;61.99;99349.31;5128081;27;20039;-70
2023/02/23 00:26:33;;;;;;;15.15;10.30;;;;;;;9.34;61.25;99358.50;5128761;28;20062;-70
2023/02/23 00:29:11;;;;;;;21.85;11.10;;;;;;;9.23;60.82;99358.03;5125065;27;20027;-70
2023/02/23 00:31:37;;;;;;;12.88;9.07;;;;;;;7.25;64.17;99361.03;5111633;28;20512;-70
2023/02/23 00:34:03;;;;;;;19.60;10.02;;;;;;;7.81;62.87;99358.78;5116305;28;20031;-70
2023/02/23 00:36:33;;;;;;;24.30;11.05;;;;;;;7.39;63.44;99361.78;5126479;28;20031;-70
2023/02/23 00:39:01;;;;;;;19.20;10.27;;;;;;;7.72;61.63;99361.53;5121634;27;20504;-70
2023/02/23 00:41:28;;;;;;;20.10;10.95;;;;;;;7.75;61.37;99350.88;5125672;27;20546;-70
2023/02/23 00:43:59;;;;;;;26.00;10.50;;;;;;;7.34;61.60;99361.09;5117777;27;20414;-70
2023/02/23 00:46:27;;;;;;;19.10;9.70;;;;;;;7.49;61.89;99362.69;5120403;27;20031;-70
2023/02/23 00:48:56;;;;;;;18.48;9.52;;;;;;;7.52;60.98;99362.03;5118942;27;20486;-70
2023/02/23 00:51:26;;;;;;;19.27;10.47;;;;;;;7.04;61.05;99358.72;5126344;27;20041;-70
2023/02/23 00:53:55;;;;;;;18.50;11.10;;;;;;;6.92;60.80;99369.59;5121565;27;20433;-70
2023/02/23 00:56:20;;;;;;;19.75;9.73;;;;;;;7.04;60.86;99364.28;5116472;27;20032;-70
2023/02/23 00:58:46;;;;;;;20.33;9.70;;;;;;;7.04;60.93;99361.50;5128527;27;20102;-70
2023/02/23 01:01:12;;;;;;;20.65;9.27;;;;;;;7.17;60.50;99362.59;5123877;27;20027;-70
2023/02/23 01:03:42;;;;;;;15.15;9.57;;;;;;;7.37;60.65;99364.06;5119574;27;20030;-70
2023/02/23 01:06:11;;;;;;;16.52;8.70;;;;;;;7.50;60.88;99367.91;5117179;27;20118;-70
2023/02/23 01:08:41;;;;;;;19.55;9.25;;;;;;;7.32;61.03;99360.59;5121637;27;20122;-70
2023/02/23 01:11:20;;;;;;;16.50;8.73;;;;;;;7.47;61.22;99368.56;5120853;27;20482;-70
2023/02/23 01:13:46;;;;;;;13.40;9.18;;;;;;;7.52;61.17;99364.81;5119780;27;20162;-70
2023/02/23 01:16:14;;;;;;;18.05;9.52;;;;;;;7.24;62.05;99367.72;5118604;27;20031;-70
2023/02/23 01:18:43;;;;;;;19.75;9.18;;;;;;;7.27;62.21;99369.88;5119525;27;20447;-70
2023/02/23 01:21:18;;;;;;;14.32;8.60;;;;;;;7.30;61.85;99378.44;5118978;27;20071;-70
2023/02/23 01:23:44;;;;;;;17.85;9.55;;;;;;;7.09;59.78;99375.28;5129189;27;20051;-70
2023/02/23 01:26:20;;;;;;;14.55;8.90;;;;;;;7.05;59.38;99365.94;5127932;27;20072;-70
2023/02/23 01:28:54;;;;;;;17.50;9.85;;;;;;;7.14;58.88;99364.06;5123610;27;20550;-70
2023/02/23 01:31:21;;;;;;;15.20;8.93;;;;;;;7.23;58.54;99366.06;5126698;27;20039;-70
2023/02/23 01:33:47;;;;;;;17.02;10.65;;;;;;;6.79;59.81;99374.03;5112370;27;20024;-70
2023/02/23 01:36:12;;;;;;;18.55;11.43;;;;;;;5.87;63.34;99373.63;5126669;27;20405;-70
2023/02/23 01:38:39;;;;;;;16.65;11.05;;;;;;;5.48;64.86;99384.00;5125864;27;20504;-70
2023/02/23 01:41:06;;;;;;;20.02;11.40;;;;;;;5.28;67.44;99378.78;5129060;27;20083;-70
2023/02/23 01:43:31;;;;;;;20.70;11.32;;;;;;;4.86;69.02;99371.09;5120981;27;20081;-70
2023/02/23 01:45:57;;;;;;;18.15;11.65;;;;;;;4.82;71.10;99381.09;5125359;27;20050;-70
2023/02/23 01:48:27;;;;;;;22.02;11.80;;;;;;;4.84;71.87;99380.81;5126651;27;20035;-70
2023/02/23 01:51:08;;;;;;;24.48;13.27;;;;;;;4.74;71.91;99379.03;5118687;27;20035;-70
2023/02/23 01:53:39;;;;;;;25.38;12.02;;;;;;;5.04;71.07;99385.22;5119736;27;20476;-70
2023/02/23 01:56:13;;;;;;;29.35;13.95;;;;;;;4.91;70.67;99376.53;5120328;27;20497;-70
2023/02/23 01:58:43;;;;;;;29.05;14.43;;;;;;;4.86;71.12;99384.94;5130336;27;20555;-70
2023/02/23 02:01:10;;;;;;;;;;;;;;;5.05;70.82;99386.88;5121810;27;20027;-70
2023/02/23 02:03:40;;;;;;;28.42;15.85;;;;;;;4.99;70.63;99388.91;5121621;27;19911;-70
2023/02/23 02:06:08;;;;;;;26.95;14.95;;;;;;;5.28;69.65;99395.41;5116418;27;20032;-70
2023/02/23 02:08:43;;;;;;;29.75;16.58;;;;;;;5.69;68.52;99391.13;5125017;27;20087;-70
2023/02/23 02:14:12;;;;;;;34.70;14.25;;;;;;;5.97;66.97;99392.03;5111009;27;20046;-70
2023/02/23 02:16:46;;;;;;;23.80;14.00;;;;;;;6.03;66.63;99388.06;5123597;27;20042;-70
2023/02/23 02:19:33;;;;;;;24.20;14.98;;;;;;;5.78;66.72;99399.59;5117522;27;20477;-70
2023/02/23 02:22:26;;;;;;;34.08;15.38;;;;;;;5.69;67.47;99400.31;5121579;27;20124;-70
2023/02/23 02:25:11;;;;;;;29.30;16.27;;;;;;;5.84;67.09;99398.38;5124666;27;20052;-70
2023/02/23 02:27:56;;;;;;;30.23;18.10;;;;;;;5.81;66.38;99399.00;5125209;27;20035;-70
2023/02/23 02:30:47;;;;;;;32.28;16.10;;;;;;;5.89;66.33;99404.66;5106673;27;20502;-70
2023/02/23 02:33:31;;;;;;;53.25;30.17;;;;;;;5.96;65.61;99398.72;5114832;27;20391;-70
2023/02/23 02:36:34;;;;;;;105.72;71.50;;;;;;;5.70;66.50;99401.09;5123578;27;20046;-70
2023/02/23 02:39:21;;;;;;;87.72;60.28;;;;;;;5.91;66.02;99401.56;5116123;27;20055;-70
2023/02/23 02:42:07;;;;;;;31.63;19.30;;;;;;;5.95;65.80;99397.06;5124930;27;20398;-70
2023/02/23 02:44:51;;;;;;;23.90;15.95;;;;;;;5.29;68.23;99405.38;5119876;27;20039;-70
2023/02/23 02:47:25;;;;;;;28.05;13.95;;;;;;;5.08;68.83;99397.38;5114258;27;20019;-70
2023/02/23 02:50:09;;;;;;;24.75;14.88;;;;;;;5.37;67.56;99396.38;5111407;28;20470;-70
2023/02/23 02:53:07;;;;;;;37.85;19.20;;;;;;;4.83;68.65;99396.63;5112063;27;20024;-70
2023/02/23 02:55:36;;;;;;;54.90;31.38;;;;;;;4.73;70.10;99389.25;5100305;28;20397;-70
2023/02/23 02:58:06;;;;;;;35.20;17.08;;;;;;;4.03;73.65;99399.81;5128600;27;20496;-70
2023/02/23 04:18:37;;;;;;;30.88;15.50;;;;;;;5.05;66.45;99432.06;5100501;27;20031;-70
2023/02/23 04:21:04;;;;;;;74.22;38.30;;;;;;;5.18;65.81;99435.22;5130438;27;20058;-70
2023/02/23 04:23:30;;;;;;;96.63;49.83;;;;;;;5.10;66.07;99422.88;5120909;27;20179;-70
2023/02/23 04:25:56;;;;;;;59.45;30.60;;;;;;;5.11;66.52;99432.81;5120335;27;20043;-70
2023/02/23 04:28:23;;;;;;;42.50;23.77;;;;;;;5.19;66.83;99443.25;5121731;27;20051;-70
2023/02/23 04:30:48;;;;;;;61.40;31.92;;;;;;;5.29;66.19;99435.88;5122736;27;20058;-70
2023/02/23 04:33:14;;;;;;;42.78;19.70;;;;;;;5.22;66.13;99424.38;5118066;27;20474;-70
2023/02/23 04:35:40;;;;;;;35.63;17.08;;;;;;;5.13;66.90;99433.34;5130740;27;20027;-70
2023/02/23 04:38:06;;;;;;;40.92;16.35;;;;;;;5.23;66.96;99442.66;5114900;27;20051;-70
2023/02/23 04:40:32;;;;;;;26.83;16.30;;;;;;;5.24;66.16;99435.97;5122704;27;20036;-70
2023/02/23 04:42:58;;;;;;;35.67;18.58;;;;;;;5.30;66.74;99431.97;5124466;27;20031;-70
2023/02/23 04:45:24;;;;;;;35.50;22.17;;;;;;;5.40;66.13;99434.59;5117901;27;20048;-70
2023/02/23 04:47:50;;;;;;;41.47;23.83;;;;;;;5.40;66.18;99431.84;5122414;27;20508;-70
2023/02/23 04:50:16;;;;;;;54.90;22.52;;;;;;;5.51;65.46;99431.69;5123852;27;20030;-74
2023/02/23 04:52:42;;;;;;;39.70;20.67;;;;;;;5.50;65.93;99436.41;5118887;27;20034;-71
2023/02/23 04:55:15;;;;;;;165.20;28.85;;;;;;;5.41;65.80;99433.47;5123624;27;20052;-72
2023/02/23 04:57:41;;;;;;;91.68;23.92;;;;;;;5.38;65.94;99439.63;5125835;27;20053;-70
2023/02/23 05:00:07;;;;;;;53.20;26.40;;;;;;;5.31;66.00;99445.56;5118584;27;20023;-72
2023/02/23 05:02:32;;;;;;;71.10;31.05;;;;;;;5.25;66.35;99445.94;5125673;27;20524;-71
2023/02/23 05:04:58;;;;;;;66.45;30.00;;;;;;;4.71;68.15;99437.81;5126426;27;20023;-71
2023/02/23 05:07:23;;;;;;;45.00;21.77;;;;;;;4.30;70.90;99448.22;5132451;27;20031;-70
2023/02/23 05:09:49;;;;;;;38.67;20.55;;;;;;;4.07;71.67;99447.91;5115799;27;20546;-71
2023/02/23 05:12:14;;;;;;;42.90;19.90;;;;;;;4.27;71.71;99451.59;5122463;27;20470;-72
2023/02/23 05:14:40;;;;;;;43.58;21.63;;;;;;;4.25;71.37;99453.00;5119685;27;20023;-69
2023/02/23 05:17:07;;;;;;;42.65;20.30;;;;;;;3.96;72.26;99449.13;5127172;27;20027;-70
2023/02/23 05:19:32;;;;;;;38.97;18.15;;;;;;;3.92;72.44;99457.22;5109473;27;20174;-70
2023/02/23 05:21:58;;;;;;;39.15;19.13;;;;;;;3.87;72.82;99462.78;5112963;27;20122;-70
2023/02/23 05:24:24;;;;;;;39.45;18.48;;;;;;;4.25;72.01;99464.06;5109722;27;20521;-70
2023/02/23 05:26:50;;;;;;;43.15;18.58;;;;;;;4.58;69.63;99465.09;5121999;27;20038;-71
2023/02/23 05:29:16;;;;;;;37.00;20.15;;;;;;;4.66;68.42;99479.44;5119092;27;20031;-71
2023/02/23 05:31:41;;;;;;;39.28;21.00;;;;;;;4.45;68.46;99472.19;5110477;27;20028;-71
2023/02/23 05:34:07;;;;;;;38.90;21.95;;;;;;;4.45;68.91;99474.09;5113840;27;20023;-71
2023/02/23 05:36:32;;;;;;;61.08;24.00;;;;;;;4.67;67.90;99481.91;5110315;27;20031;-70
2023/02/23 05:38:59;;;;;;;88.32;42.30;;;;;;;4.82;67.39;99483.66;5111779;27;20055;-70
2023/02/23 05:41:24;;;;;;;90.28;46.30;;;;;;;4.88;66.39;99493.56;5112331;27;20051;-73
2023/02/23 05:43:51;;;;;;;83.60;43.22;;;;;;;4.99;66.07;99487.91;5112115;27;20461;-71
2023/02/23 05:46:20;;;;;;;98.60;45.78;;;;;;;4.92;66.72;99493.81;5120270;27;20034;-70
2023/02/23 05:48:46;;;;;;;87.22;48.38;;;;;;;4.99;66.87;99494.25;5112867;27;20031;-70
2023/02/23 05:51:14;;;;;;;91.97;44.10;;;;;;;5.06;66.75;99500.25;5114105;27;20088;-70
2023/02/23 05:53:40;;;;;;;91.07;41.83;;;;;;;5.16;66.73;99502.06;5110643;27;20512;-72
2023/02/23 05:56:07;;;;;;;63.40;32.28;;;;;;;5.28;66.38;99509.13;5123646;27;20023;-73
2023/02/23 05:58:33;;;;;;;92.38;39.17;;;;;;;5.40;66.41;99509.50;5110805;27;20020;-73
2023/02/23 06:00:59;;;;;;;80.47;38.42;;;;;;;5.58;66.32;99518.16;5114708;27;20596;-72
2023/02/23 06:03:24;;;;;;;65.13;35.13;;;;;;;5.65;65.46;99521.34;5117140;27;20092;-73
2023/02/23 06:05:54;;;;;;;38.30;21.63;;;;;;;5.13;66.21;99524.84;5112778;27;20528;-72
2023/02/23 06:08:20;;;;;;;32.45;17.73;;;;;;;4.98;66.63;99530.59;5111144;28;20498;-73
2023/02/23 06:10:46;;;;;;;35.80;17.13;;;;;;;5.18;66.53;99538.63;5113138;28;20077;-73
2023/02/23 06:13:13;;;;;;;25.65;16.23;;;;;;;4.94;67.21;99546.16;5109994;28;20068;-72
2023/02/23 06:15:39;;;;;;;27.73;16.33;;;;;;;5.17;67.42;99534.22;5110214;28;20031;-72
2023/02/23 06:18:06;;;;;;;36.53;18.20;;;;;;;5.30;66.86;99531.84;5091288;28;20023;-72
2023/02/23 06:20:31;;;;;;;41.25;23.65;;;;;;;5.37;67.06;99537.00;5105897;28;20039;-72
2023/02/23 06:22:56;;;;;;;44.60;24.35;;;;;;;5.13;67.51;99546.19;5112253;27;20096;-72
2023/02/23 06:25:22;;;;;;;47.83;26.15;;;;;;;5.39;67.28;99545.88;5110615;27;20066;-72
2023/02/23 06:27:48;;;;;;;48.35;24.85;;;;;;;5.82;65.86;99550.53;5116842;27;20081;-72
2023/02/23 06:30:14;;;;;;;38.55;23.35;;;;;;;6.15;65.31;99553.34;5107209;27;20525;-72
2023/02/23 06:32:39;;;;;;;54.05;25.52;;;;;;;6.47;64.19;99557.25;5103254;27;20069;-72
2023/02/23 06:35:07;;;;;;;53.63;28.42;;;;;;;5.98;65.19;99551.94;5110460;27;20050;-72
2023/02/23 06:37:33;;;;;;;57.35;28.20;;;;;;;5.75;67.25;99559.25;5110301;28;20032;-72
2023/02/23 06:39:58;;;;;;;44.63;23.10;;;;;;;5.66;66.95;99550.75;5109973;27;20027;-72
2023/02/23 06:42:24;;;;;;;25.38;16.92;;;;;;;5.99;66.32;99553.59;5111152;28;20402;-72
2023/02/23 06:44:49;;;;;;;32.65;17.70;;;;;;;6.25;65.31;99560.72;5110337;27;20106;-72
2023/02/23 06:47:15;;;;;;;33.95;17.33;;;;;;;6.65;63.96;99549.19;5109238;27;20518;-72
2023/02/23 06:49:40;;;;;;;42.40;24.60;;;;;;;6.98;62.66;99555.47;5108605;28;20035;-72
2023/02/23 06:52:08;;;;;;;216.10;103.70;;;;;;;7.33;62.13;99557.81;5109241;28;20035;-72
2023/02/23 06:54:34;;;;;;;34.53;19.67;;;;;;;6.90;62.57;99555.38;5109282;28;20046;-72
2023/02/23 06:56:59;;;;;;;25.90;16.60;;;;;;;6.03;66.21;99554.69;5110825;28;20032;-72
2023/02/23 06:59:25;;;;;;;35.33;18.67;;;;;;;6.49;64.66;99563.34;5108648;28;20023;-72
2023/02/23 07:01:50;;;;;;;40.95;18.30;;;;;;;5.84;68.10;99553.84;5110284;27;20054;-72
2023/02/23 07:04:16;;;;;;;35.63;18.77;;;;;;;6.10;67.67;99556.22;5109238;28;20092;-72
2023/02/23 07:06:42;;;;;;;32.33;16.92;;;;;;;6.71;65.64;99553.50;5109110;27;20092;-73
2023/02/23 07:09:07;;;;;;;28.27;17.23;;;;;;;6.34;66.36;99553.34;5110802;28;20031;-72
2023/02/23 07:11:33;;;;;;;67.35;26.67;;;;;;;6.57;66.41;99548.75;5105754;27;20062;-71
2023/02/23 07:14:00;;;;;;;59.83;25.45;;;;;;;6.21;67.33;99549.38;5109899;27;20455;-74
2023/02/23 07:16:27;;;;;;;60.03;25.25;;;;;;;6.64;66.31;99544.75;5108849;27;20034;-70
2023/02/23 07:18:53;;;;;;;48.63;21.48;;;;;;;7.12;64.63;99543.53;5110137;28;20032;-69
2023/02/23 07:21:19;;;;;;;46.85;19.50;;;;;;;7.21;64.30;99547.22;5109680;28;20034;-70
2023/02/23 07:23:46;;;;;;;39.00;19.15;;;;;;;7.34;63.70;99561.44;5109227;28;20600;-69
2023/02/23 07:26:14;;;;;;;31.42;17.60;;;;;;;7.73;62.76;99541.34;5108830;28;20456;-69
2023/02/23 07:28:40;;;;;;;38.22;17.48;;;;;;;8.13;62.44;99553.78;5109145;28;20540;-70
2023/02/23 07:31:06;;;;;;;27.13;17.27;;;;;;;7.57;63.13;99548.41;5106938;27;20153;-70
2023/02/23 07:33:31;;;;;;;27.15;16.33;;;;;;;7.62;64.02;99542.72;5107552;27;20031;-72
2023/02/23 07:35:57;;;;;;;37.22;18.98;;;;;;;7.80;64.16;99546.50;5107262;28;20061;-69
2023/02/23 07:38:22;;;;;;;30.92;15.70;;;;;;;8.46;61.99;99545.16;5107821;28;20027;-70
2023/02/23 07:40:51;;;;;;;23.13;12.93;;;;;;;8.22;61.16;99539.91;5110513;28;20088;-69
2023/02/23 07:43:20;;;;;;;20.45;12.80;;;;;;;8.59;61.86;99543.44;5110815;28;20023;-70
2023/02/23 07:45:46;;;;;;;16.50;11.20;;;;;;;8.93;61.43;99543.91;5108178;28;20092;-69
2023/02/23 07:48:11;;;;;;;20.05;13.48;;;;;;;9.02;59.32;99544.78;5109291;28;20431;-69
2023/02/23 07:50:39;;;;;;;25.20;13.38;;;;;;;9.36;59.64;99542.44;5107998;28;20024;-70
2023/02/23 07:53:04;;;;;;;17.60;11.60;;;;;;;9.47;60.13;99545.72;5114016;27;20062;-69
2023/02/23 07:55:30;;;;;;;16.70;10.18;;;;;;;9.78;59.68;99540.00;5110462;27;20574;-70
2023/02/23 07:57:56;;;;;;;22.48;11.25;;;;;;;10.16;57.44;99544.09;5119233;27;20111;-71
2023/02/23 08:00:23;;;;;;;23.55;12.05;;;;;;;10.01;58.52;99544.59;5113478;27;20092;-73
2023/02/23 08:02:50;;;;;;;24.13;11.48;;;;;;;10.12;57.85;99543.09;5109216;27;20097;-71
2023/02/23 08:05:16;;;;;;;23.60;12.48;;;;;;;10.15;57.95;99545.25;5108458;27;20089;-70
2023/02/23 08:07:41;;;;;;;192.60;81.88;;;;;;;10.21;58.07;99538.34;5112630;27;20036;-71
2023/02/23 08:10:07;;;;;;;39.35;18.45;;;;;;;10.23;56.47;99536.03;5111480;28;20034;-71
2023/02/23 08:12:33;;;;;;;39.50;19.23;;;;;;;10.51;56.19;99541.28;5112373;27;20035;-71
2023/02/23 08:14:58;;;;;;;51.65;22.73;;;;;;;10.64;55.72;99541.41;5114048;28;20147;-71
2023/02/23 08:17:24;;;;;;;40.50;21.85;;;;;;;10.51;55.73;99541.28;5109154;28;20410;-72
2023/02/23 08:19:50;;;;;;;35.05;17.08;;;;;;;10.57;55.89;99547.53;5113074;28;20035;-72
2023/02/23 08:22:15;;;;;;;19.90;11.98;;;;;;;10.31;56.89;99533.56;5112962;28;20035;-72
2023/02/23 08:24:40;;;;;;;27.75;14.35;;;;;;;10.38;56.73;99531.09;5110610;28;20051;-72
2023/02/23 08:27:06;;;;;;;29.45;14.95;;;;;;;10.77;56.66;99543.19;5112903;27;20034;-72
2023/02/23 08:29:33;;;;;;;20.88;11.80;;;;;;;10.74;55.65;99543.03;5112747;27;20027;-72
2023/02/23 08:32:02;;;;;;;27.75;14.60;;;;;;;10.94;55.65;99538.66;5115383;27;20024;-72
2023/02/23 08:34:27;;;;;;;19.65;11.52;;;;;;;10.99;55.29;99544.09;5113431;27;20111;-72
2023/02/23 08:36:53;;;;;;;27.75;15.38;;;;;;;11.12;55.84;99535.78;5113989;28;20476;-72
2023/02/23 08:39:18;;;;;;;90.63;50.47;;;;;;;11.42;54.81;99538.56;5113927;28;20096;-72
2023/02/23 08:41:44;;;;;;;88.68;41.55;;;;;;;11.33;55.33;99533.84;5112441;28;20028;-72
2023/02/23 08:44:09;;;;;;;35.38;17.80;;;;;;;11.42;55.40;99545.00;5111373;28;20035;-72
2023/02/23 08:46:35;;;;;;;24.55;10.57;;;;;;;10.87;56.62;99538.38;5110946;27;20035;-72
2023/02/23 08:49:00;;;;;;;81.13;49.30;;;;;;;10.89;56.76;99539.66;5108876;27;20030;-72
2023/02/23 08:51:26;;;;;;;22.40;12.15;;;;;;;10.91;56.89;99537.34;5112905;28;20485;-71
2023/02/23 08:53:51;;;;;;;38.65;17.98;;;;;;;11.24;56.75;99533.09;5113057;27;20425;-71
2023/02/23 08:56:17;;;;;;;41.17;21.80;;;;;;;11.37;54.97;99543.22;5111552;28;20031;-72
2023/02/23 08:58:42;;;;;;;25.08;14.52;;;;;;;11.50;54.92;99537.72;5111216;27;20058;-71
2023/02/23 09:01:16;;;;;;;14.65;10.07;;;;;;;11.61;53.97;99532.50;5112701;27;20097;-71
2023/02/23 09:03:42;;;;;;;36.95;18.40;;;;;;;11.93;53.69;99527.34;5111791;28;20019;-71
2023/02/23 09:06:14;;;;;;;50.67;15.60;;;;;;;12.21;53.77;99535.19;5111067;28;20532;-71
2023/02/23 09:08:40;;;;;;;37.08;18.58;;;;;;;12.43;52.95;99531.19;5112191;27;20043;-71
2023/02/23 09:11:05;;;;;;;75.75;33.65;;;;;;;12.58;53.00;99534.50;5111641;27;20096;-71
2023/02/23 09:13:31;;;;;;;64.55;23.00;;;;;;;12.59;53.13;99525.72;5113063;27;20027;-71
2023/02/23 09:15:57;;;;;;;79.43;36.33;;;;;;;12.55;53.90;99529.56;5112353;27;20035;-70
2023/02/23 09:18:26;;;;;;;187.48;76.30;;;;;;;12.64;53.19;99530.28;5113258;27;20671;-71
2023/02/23 09:20:52;;;;;;;22.80;12.75;;;;;;;12.40;52.74;99531.84;5112855;27;20024;-71
2023/02/23 09:23:17;;;;;;;67.53;33.70;;;;;;;12.51;53.09;99529.44;5110393;27;20138;-71
2023/02/23 09:25:44;;;;;;;24.33;11.65;;;;;;;12.48;52.50;99516.94;5111335;27;20089;-71
2023/02/23 09:28:15;;;;;;;14.40;8.75;;;;;;;12.29;53.98;99530.66;5112832;27;20526;-71
2023/02/23 09:30:45;;;;;;;21.13;10.25;;;;;;;12.56;52.83;99532.03;5128695;27;20440;-71
2023/02/23 09:33:10;;;;;;;21.05;8.70;;;;;;;12.79;52.25;99531.59;5112714;27;20513;-70
2023/02/23 09:35:36;;;;;;;16.00;8.05;;;;;;;12.72;52.56;99526.56;5111227;27;20038;-71
2023/02/23 09:38:04;;;;;;;16.30;7.95;;;;;;;12.89;51.67;99522.72;5111843;27;20032;-71
2023/02/23 09:40:42;;;;;;;50.03;19.30;;;;;;;13.03;51.28;99521.56;5111263;27;20398;-71
2023/02/23 09:43:19;;;;;;;41.40;16.73;;;;;;;13.21;51.46;99524.97;5107041;27;20467;-71
2023/02/23 09:46:09;;;;;;;16.52;9.60;;;;;;;13.17;50.84;99521.22;5105209;28;20115;-72
2023/02/23 09:48:38;;;;;;;12.90;9.02;;;;;;;13.20;49.73;99518.50;5111106;27;20114;-71
2023/02/23 09:51:07;;;;;;;18.05;8.68;;;;;;;13.39;49.40;99514.28;5096420;27;20028;-71
2023/02/23 09:53:44;;;;;;;17.08;8.10;;;;;;;13.46;49.09;99508.09;5111553;28;20019;-71
2023/02/23 09:56:28;;;;;;;14.27;9.30;;;;;;;13.72;49.11;99509.69;5109762;27;20035;-71
2023/02/23 09:58:54;;;;;;;24.52;9.43;;;;;;;13.68;49.32;99512.38;5110808;28;20531;-71
2023/02/23 10:01:19;;;;;;;16.50;9.27;;;;;;;13.64;50.47;99513.47;5112295;28;20036;-71
2023/02/23 10:03:51;;;;;;;19.60;9.80;;;;;;;13.59;49.46;99518.16;5112297;28;20019;-71
2023/02/23 10:06:18;;;;;;;27.60;10.77;;;;;;;13.50;50.39;99508.22;5110511;27;20023;-70
2023/02/23 10:09:06;;;;;;;20.05;8.50;;;;;;;13.26;50.79;99504.25;5104479;27;20145;-71
2023/02/23 10:11:58;;;;;;;17.02;9.07;;;;;;;13.53;50.36;99504.69;5107845;28;20510;-71
2023/02/23 10:14:30;;;;;;;18.38;8.27;;;;;;;13.56;50.49;99516.06;5107169;28;20031;-71
2023/02/23 10:17:22;;;;;;;15.68;7.72;;;;;;;13.56;51.45;99502.00;5111239;27;20080;-71
2023/02/23 10:20:17;;;;;;;12.90;7.05;;;;;;;13.63;51.24;99495.78;5104905;28;20115;-71
2023/02/23 10:22:45;;;;;;;17.02;7.80;;;;;;;13.87;50.18;99485.63;5108699;27;20497;-70
2023/02/23 10:25:16;;;;;;;12.55;7.85;;;;;;;13.78;51.37;99485.78;5108514;27;20086;-70
2023/02/23 10:27:47;;;;;;;14.48;6.55;;;;;;;13.60;52.03;99483.25;5109747;27;20459;-70
2023/02/23 10:30:28;;;;;;;12.80;8.23;;;;;;;13.80;51.48;99477.81;5109981;27;20102;-70
2023/02/23 10:33:12;;;;;;;17.85;8.07;;;;;;;14.07;50.32;99480.97;5111952;28;20515;-71
2023/02/23 10:35:38;;;;;;;19.50;6.72;;;;;;;14.26;48.99;99471.84;5111367;28;20028;-70
2023/02/23 10:38:04;;;;;;;18.85;7.13;;;;;;;14.18;49.45;99473.66;5111063;28;20097;-72
2023/02/23 10:40:32;;;;;;;21.70;8.98;;;;;;;14.29;48.65;99471.13;5111874;28;20019;-71
2023/02/23 10:43:00;;;;;;;11.38;6.68;;;;;;;14.50;48.90;99464.44;5111759;28;20028;-71
2023/02/23 10:45:27;;;;;;;15.35;9.13;;;;;;;14.28;48.88;99461.06;5112021;28;20478;-71
2023/02/23 10:48:17;;;;;;;11.88;7.80;;;;;;;14.23;49.33;99461.34;5111847;28;20023;-71
2023/02/23 10:50:44;;;;;;;17.50;8.15;;;;;;;14.40;48.07;99448.91;5108664;27;20020;-71
2023/02/23 10:53:22;;;;;;;14.80;7.85;;;;;;;14.55;47.64;99452.09;5106725;28;20035;-71
2023/02/23 10:56:09;;;;;;;14.63;7.40;;;;;;;14.48;48.20;99446.28;5111299;27;20024;-71
2023/02/23 10:58:53;;;;;;;12.13;7.57;;;;;;;14.47;47.70;99448.28;5108516;28;20019;-71
2023/02/23 11:01:40;;;;;;;13.82;8.88;;;;;;;14.35;48.21;99439.94;5108942;28;20019;-71
2023/02/23 11:04:25;;;;;;;9.15;6.70;;;;;;;14.71;47.96;99440.84;5107103;27;20079;-69
2023/02/23 11:07:07;;;;;;;11.95;7.47;;;;;;;15.01;46.89;99448.81;5111060;27;20026;-72
2023/02/23 11:09:33;;;;;;;27.27;8.23;;;;;;;15.02;47.02;99440.03;5102709;27;20486;-69
2023/02/23 11:12:01;;;;;;;12.57;6.80;;;;;;;14.97;47.26;99434.69;5103015;28;20028;-70
2023/02/23 11:14:29;;;;;;;13.75;7.68;;;;;;;15.15;46.47;99437.09;5105948;27;20081;-70
2023/02/23 11:16:57;;;;;;;14.85;7.50;;;;;;;15.01;47.46;99429.94;5100355;28;20471;-69
2023/02/23 11:19:33;;;;;;;10.15;6.97;;;;;;;15.18;47.13;99427.09;5105821;28;20693;-70
2023/02/23 11:21:59;;;;;;;11.45;7.38;;;;;;;15.16;45.81;99422.66;5105859;28;20049;-70
2023/02/23 11:24:33;;;;;;;36.20;7.22;;;;;;;15.10;46.09;99423.31;5105467;28;20188;-71
2023/02/23 11:27:02;;;;;;;24.05;10.90;;;;;;;15.11;46.97;99422.91;5106878;28;20035;-71
2023/02/23 11:29:34;;;;;;;16.40;7.68;;;;;;;14.91;47.18;99419.25;5107230;28;20092;-72
2023/02/23 11:32:12;;;;;;;10.52;6.25;;;;;;;15.21;46.59;99418.72;5104827;28;20518;-72
2023/02/23 11:34:42;;;;;;;14.45;8.02;;;;;;;15.36;45.81;99419.84;5109424;28;20023;-72
2023/02/23 11:37:20;;;;;;;18.98;8.77;;;;;;;15.35;45.38;99414.59;5107775;28;20134;-73
2023/02/23 11:39:57;;;;;;;22.77;7.90;;;;;;;15.36;46.04;99419.03;5109442;28;20073;-72
2023/02/23 11:42:32;;;;;;;12.13;6.43;;;;;;;15.33;45.56;99414.97;5108778;28;20051;-73
2023/02/23 11:45:14;;;;;;;13.52;7.68;;;;;;;15.14;45.91;99407.28;5107983;28;20051;-73
2023/02/23 11:47:45;;;;;;;13.00;6.65;;;;;;;15.18;45.62;99416.63;5102381;28;20044;-73
2023/02/23 11:50:32;;;;;;;13.77;6.95;;;;;;;15.18;45.80;99404.56;5108212;28;20028;-73
2023/02/23 11:53:17;;;;;;;9.75;6.28;;;;;;;15.15;46.47;99415.38;5107134;28;20060;-73
2023/02/23 11:55:53;;;;;;;10.38;6.80;;;;;;;15.36;46.45;99407.78;5104960;28;20111;-73
2023/02/23 11:58:37;;;;;;;10.27;6.60;;;;;;;15.43;45.47;99408.75;5108566;28;20622;-73
2023/02/23 12:01:12;;;;;;;14.40;7.45;;;;;;;15.33;45.53;99417.78;5106619;28;20042;-73
2023/02/23 12:04:04;;;;;;;17.45;7.15;;;;;;;15.19;45.68;99407.00;5109528;28;20035;-73
2023/02/23 12:06:34;;;;;;;15.75;7.00;;;;;;;15.33;46.75;99414.97;5105255;28;20546;-73
2023/02/23 12:09:17;;;;;;;15.25;7.93;;;;;;;15.41;45.96;99404.66;5099522;28;20124;-73
2023/02/23 12:11:48;;;;;;;9.75;6.90;;;;;;;15.31;46.51;99406.06;5106991;28;20027;-73
2023/02/23 12:14:40;;;;;;;10.77;7.63;;;;;;;15.41;46.36;99415.91;5108471;28;20463;-72
2023/02/23 12:17:17;;;;;;;11.10;6.95;;;;;;;15.22;46.44;99408.25;5106689;28;20028;-71
2023/02/23 12:19:48;;;;;;;11.93;7.15;;;;;;;15.31;47.26;99400.44;5101755;28;20468;-72
2023/02/23 12:22:22;;;;;;;15.35;8.38;;;;;;;14.97;46.24;99414.13;5122923;27;20555;-71
2023/02/23 12:25:15;;;;;;;23.20;8.02;;;;;;;15.09;47.32;99414.03;5101146;28;20525;-71
2023/02/23 12:28:14;;;;;;;17.48;8.48;;;;;;;14.97;47.14;99408.50;5099436;28;20506;-71
2023/02/23 12:30:47;;;;;;;13.60;7.15;;;;;;;14.95;46.71;99413.69;5074161;28;20032;-71
2023/02/23 12:33:38;;;;;;;11.48;6.80;;;;;;;15.07;47.14;99404.31;5106146;28;20087;-71
2023/02/23 12:36:32;;;;;;;12.52;7.97;;;;;;;15.10;47.22;99406.41;5104690;28;20494;-71
2023/02/23 12:39:31;;;;;;;12.05;6.32;;;;;;;15.08;47.62;99411.56;5109321;28;20466;-75
2023/02/23 12:42:03;;;;;;;8.57;6.63;;;;;;;15.16;47.43;99416.19;5107173;28;20110;-72
2023/02/23 12:44:41;;;;;;;12.38;6.47;;;;;;;15.28;47.51;99412.44;5108976;28;20397;-72
2023/02/23 12:47:34;;;;;;;8.63;5.80;;;;;;;15.28;47.77;99423.72;5106655;27;20019;-71
2023/02/23 12:50:12;;;;;;;11.50;6.53;;;;;;;15.48;47.47;99418.91;5100309;27;20556;-71
2023/02/23 12:52:49;;;;;;;10.85;6.65;;;;;;;15.13;47.81;99422.56;5111631;28;20414;-72
2023/02/23 12:55:27;;;;;;;11.10;6.55;;;;;;;15.20;48.00;99428.34;5107082;27;20035;-71
2023/02/23 12:58:02;;;;;;;15.02;7.63;;;;;;;15.11;48.41;99419.31;5108325;28;20023;-72
2023/02/23 13:00:43;;;;;;;14.32;8.00;;;;;;;14.70;50.22;99417.50;5107930;27;20058;-72
2023/02/23 13:03:11;;;;;;;;;;;;;;;14.93;50.10;99419.69;5110396;27;20504;-71